sensor_id;sensor_type;location;lat;lon;timestamp;temperature;humidity
61392;DHT22;47261;52.892;5.738;2022-12-29T00:01:31;11.00;99.90
61392;DHT22;47261;52.892;5.738;2022-12-29T00:03:57;11.00;99.90
61392;DHT22;47261;52.892;5.738;2022-12-29T00:06:23;11.00;99.90
61392;DHT22;47261;52.892;5.738;2022-12-29T00:08:48;11.00;99.90
61392;DHT22;47261;52.892;5.738;2022-12-29T00:11:25;11.00;99.90
61392;DHT22;47261;52.892;5.738;2022-12-29T00:13:52;11.00;99.90
61392;DHT22;47261;52.892;5.738;2022-12-29T00:16:37;11.00;99.90
61392;DHT22;47261;52.892;5.738;2022-12-29T00:19:04;11.10;99.90
61392;DHT22;47261;52.892;5.738;2022-12-29T00:21:29;11.10;99.90
61392;DHT22;47261;52.892;5.738;2022-12-29T00:27:09;11.10;99.90
61392;DHT22;47261;52.892;5.738;2022-12-29T00:29:54;11.10;99.90
61392;DHT22;47261;52.892;5.738;2022-12-29T00:32:38;11.10;99.90
61392;DHT22;47261;52.892;5.738;2022-12-29T00:35:38;11.10;99.90
61392;DHT22;47261;52.892;5.738;2022-12-29T00:38:07;11.10;99.90
61392;DHT22;47261;52.892;5.738;2022-12-29T00:40:52;11.10;99.90
61392;DHT22;47261;52.892;5.738;2022-12-29T00:43:36;11.10;99.90
61392;DHT22;47261;52.892;5.738;2022-12-29T00:46:21;11.10;99.90
61392;DHT22;47261;52.892;5.738;2022-12-29T00:48:46;11.10;99.90
61392;DHT22;47261;52.892;5.738;2022-12-29T00:51:31;11.10;99.90
61392;DHT22;47261;52.892;5.738;2022-12-29T00:53:56;11.10;99.90
61392;DHT22;47261;52.892;5.738;2022-12-29T00:56:22;11.20;99.90
61392;DHT22;47261;52.892;5.738;2022-12-29T00:58:48;11.20;99.90
61392;DHT22;47261;52.892;5.738;2022-12-29T01:01:13;11.20;99.90
61392;DHT22;47261;52.892;5.738;2022-12-29T01:03:39;11.20;99.90
61392;DHT22;47261;52.892;5.738;2022-12-29T01:06:07;11.20;99.90
61392;DHT22;47261;52.892;5.738;2022-12-29T01:08:33;11.20;99.90
61392;DHT22;47261;52.892;5.738;2022-12-29T01:11:05;11.20;99.90
61392;DHT22;47261;52.892;5.738;2022-12-29T01:13:30;11.10;99.90
61392;DHT22;47261;52.892;5.738;2022-12-29T01:15:56;11.10;99.90
61392;DHT22;47261;52.892;5.738;2022-12-29T01:18:23;11.10;99.90
61392;DHT22;47261;52.892;5.738;2022-12-29T01:20:49;11.00;99.90
61392;DHT22;47261;52.892;5.738;2022-12-29T01:23:15;11.00;99.90
61392;DHT22;47261;52.892;5.738;2022-12-29T01:25:41;11.00;99.90
61392;DHT22;47261;52.892;5.738;2022-12-29T01:28:07;11.00;99.90
61392;DHT22;47261;52.892;5.738;2022-12-29T01:30:34;11.00;99.90
61392;DHT22;47261;52.892;5.738;2022-12-29T01:33:00;11.00;99.90
61392;DHT22;47261;52.892;5.738;2022-12-29T01:35:26;11.00;99.90
61392;DHT22;47261;52.892;5.738;2022-12-29T01:37:52;11.10;99.90
61392;DHT22;47261;52.892;5.738;2022-12-29T01:40:18;11.00;99.90
61392;DHT22;47261;52.892;5.738;2022-12-29T01:42:43;11.10;99.90
61392;DHT22;47261;52.892;5.738;2022-12-29T01:45:14;11.10;99.90
61392;DHT22;47261;52.892;5.738;2022-12-29T01:47:54;11.20;99.90
61392;DHT22;47261;52.892;5.738;2022-12-29T01:50:32;11.20;99.90
61392;DHT22;47261;52.892;5.738;2022-12-29T01:53:04;11.20;99.90
61392;DHT22;47261;52.892;5.738;2022-12-29T01:55:36;11.30;99.90
61392;DHT22;47261;52.892;5.738;2022-12-29T01:58:04;11.40;99.90
61392;DHT22;47261;52.892;5.738;2022-12-29T02:00:31;11.40;99.90
61392;DHT22;47261;52.892;5.738;2022-12-29T02:02:57;11.50;99.80
61392;DHT22;47261;52.892;5.738;2022-12-29T02:08:05;11.50;99.80
61392;DHT22;47261;52.892;5.738;2022-12-29T02:10:32;11.50;99.60
61392;DHT22;47261;52.892;5.738;2022-12-29T02:13:00;11.60;99.50
61392;DHT22;47261;52.892;5.738;2022-12-29T02:21:37;11.60;99.10
61392;DHT22;47261;52.892;5.738;2022-12-29T02:34:47;11.40;99.90
61392;DHT22;47261;52.892;5.738;2022-12-29T02:37:26;11.30;99.90
61392;DHT22;47261;52.892;5.738;2022-12-29T02:40:19;11.20;99.90
61392;DHT22;47261;52.892;5.738;2022-12-29T02:43:04;11.10;99.90
61392;DHT22;47261;52.892;5.738;2022-12-29T02:45:33;11.00;99.90
61392;DHT22;47261;52.892;5.738;2022-12-29T02:50:59;10.90;99.90
61392;DHT22;47261;52.892;5.738;2022-12-29T02:53:26;10.90;99.90
61392;DHT22;47261;52.892;5.738;2022-12-29T02:56:11;10.80;99.70
61392;DHT22;47261;52.892;5.738;2022-12-29T02:58:37;10.80;99.30
61392;DHT22;47261;52.892;5.738;2022-12-29T03:04:07;10.60;99.00
61392;DHT22;47261;52.892;5.738;2022-12-29T03:09:56;10.50;99.10
61392;DHT22;47261;52.892;5.738;2022-12-29T03:12:36;10.50;99.20
61392;DHT22;47261;52.892;5.738;2022-12-29T03:15:32;10.50;99.20
61392;DHT22;47261;52.892;5.738;2022-12-29T03:18:47;10.50;99.30
61392;DHT22;47261;52.892;5.738;2022-12-29T03:21:36;10.50;99.30
61392;DHT22;47261;52.892;5.738;2022-12-29T03:24:27;10.50;99.20
61392;DHT22;47261;52.892;5.738;2022-12-29T03:26:55;10.50;99.20
61392;DHT22;47261;52.892;5.738;2022-12-29T03:29:21;10.50;99.20
61392;DHT22;47261;52.892;5.738;2022-12-29T03:31:49;10.50;99.10
61392;DHT22;47261;52.892;5.738;2022-12-29T03:34:18;10.60;99.00
61392;DHT22;47261;52.892;5.738;2022-12-29T03:36:53;10.50;98.80
61392;DHT22;47261;52.892;5.738;2022-12-29T03:39:22;10.60;98.80
61392;DHT22;47261;52.892;5.738;2022-12-29T03:41:52;10.60;98.80
61392;DHT22;47261;52.892;5.738;2022-12-29T03:44:21;10.60;98.80
61392;DHT22;47261;52.892;5.738;2022-12-29T03:46:46;10.70;98.80
61392;DHT22;47261;52.892;5.738;2022-12-29T03:49:12;10.70;98.70
61392;DHT22;47261;52.892;5.738;2022-12-29T03:51:38;10.70;98.50
61392;DHT22;47261;52.892;5.738;2022-12-29T03:54:03;10.70;98.30
61392;DHT22;47261;52.892;5.738;2022-12-29T03:56:29;10.70;97.90
61392;DHT22;47261;52.892;5.738;2022-12-29T03:58:55;10.70;97.50
61392;DHT22;47261;52.892;5.738;2022-12-29T04:01:20;10.60;97.40
61392;DHT22;47261;52.892;5.738;2022-12-29T04:03:46;10.60;97.30
61392;DHT22;47261;52.892;5.738;2022-12-29T04:06:11;10.50;97.30
61392;DHT22;47261;52.892;5.738;2022-12-29T04:08:37;10.40;97.30
61392;DHT22;47261;52.892;5.738;2022-12-29T04:11:03;10.30;97.40
61392;DHT22;47261;52.892;5.738;2022-12-29T04:13:29;10.20;97.60
61392;DHT22;47261;52.892;5.738;2022-12-29T04:15:55;10.10;97.70
61392;DHT22;47261;52.892;5.738;2022-12-29T04:18:21;9.90;97.80
61392;DHT22;47261;52.892;5.738;2022-12-29T04:20:46;9.90;98.00
61392;DHT22;47261;52.892;5.738;2022-12-29T04:23:29;9.80;98.30
61392;DHT22;47261;52.892;5.738;2022-12-29T04:25:55;9.70;98.70
61392;DHT22;47261;52.892;5.738;2022-12-29T04:28:21;9.70;99.00
61392;DHT22;47261;52.892;5.738;2022-12-29T04:30:47;9.70;99.00
61392;DHT22;47261;52.892;5.738;2022-12-29T04:33:13;9.70;99.10
61392;DHT22;47261;52.892;5.738;2022-12-29T04:35:39;9.70;99.00
61392;DHT22;47261;52.892;5.738;2022-12-29T04:38:05;9.70;99.00
61392;DHT22;47261;52.892;5.738;2022-12-29T04:40:30;9.70;98.90
61392;DHT22;47261;52.892;5.738;2022-12-29T04:42:56;9.70;98.90
61392;DHT22;47261;52.892;5.738;2022-12-29T04:45:22;9.80;98.90
61392;DHT22;47261;52.892;5.738;2022-12-29T04:47:47;9.70;98.80
61392;DHT22;47261;52.892;5.738;2022-12-29T04:50:13;9.70;98.80
61392;DHT22;47261;52.892;5.738;2022-12-29T04:52:39;9.80;98.80
61392;DHT22;47261;52.892;5.738;2022-12-29T04:55:05;9.80;98.80
61392;DHT22;47261;52.892;5.738;2022-12-29T04:57:31;9.80;98.70
61392;DHT22;47261;52.892;5.738;2022-12-29T04:59:57;9.80;98.60
61392;DHT22;47261;52.892;5.738;2022-12-29T05:02:23;9.90;98.50
61392;DHT22;47261;52.892;5.738;2022-12-29T05:04:48;9.90;98.40
61392;DHT22;47261;52.892;5.738;2022-12-29T05:07:14;10.00;98.40
61392;DHT22;47261;52.892;5.738;2022-12-29T05:09:40;10.00;98.40
61392;DHT22;47261;52.892;5.738;2022-12-29T05:12:06;10.00;98.40
61392;DHT22;47261;52.892;5.738;2022-12-29T05:14:31;10.00;98.30
61392;DHT22;47261;52.892;5.738;2022-12-29T05:16:57;10.10;98.20
61392;DHT22;47261;52.892;5.738;2022-12-29T05:19:23;10.10;98.10
61392;DHT22;47261;52.892;5.738;2022-12-29T05:21:48;10.10;97.90
61392;DHT22;47261;52.892;5.738;2022-12-29T05:24:14;10.10;97.80
61392;DHT22;47261;52.892;5.738;2022-12-29T05:26:41;10.10;97.70
61392;DHT22;47261;52.892;5.738;2022-12-29T05:29:06;10.10;97.60
61392;DHT22;47261;52.892;5.738;2022-12-29T05:31:32;10.10;97.50
61392;DHT22;47261;52.892;5.738;2022-12-29T05:33:58;10.10;97.40
61392;DHT22;47261;52.892;5.738;2022-12-29T05:36:24;10.10;97.30
61392;DHT22;47261;52.892;5.738;2022-12-29T05:38:50;10.10;97.10
61392;DHT22;47261;52.892;5.738;2022-12-29T05:41:15;10.10;97.00
61392;DHT22;47261;52.892;5.738;2022-12-29T05:43:41;10.10;96.90
61392;DHT22;47261;52.892;5.738;2022-12-29T05:46:07;10.00;96.80
61392;DHT22;47261;52.892;5.738;2022-12-29T05:48:32;10.00;96.70
61392;DHT22;47261;52.892;5.738;2022-12-29T05:50:58;10.00;96.80
61392;DHT22;47261;52.892;5.738;2022-12-29T05:53:24;10.00;96.70
61392;DHT22;47261;52.892;5.738;2022-12-29T05:55:49;10.00;96.60
61392;DHT22;47261;52.892;5.738;2022-12-29T05:58:16;10.00;96.60
61392;DHT22;47261;52.892;5.738;2022-12-29T06:00:42;9.90;96.50
61392;DHT22;47261;52.892;5.738;2022-12-29T06:03:08;9.90;96.50
61392;DHT22;47261;52.892;5.738;2022-12-29T06:05:34;9.80;96.60
61392;DHT22;47261;52.892;5.738;2022-12-29T06:07:59;9.70;96.70
61392;DHT22;47261;52.892;5.738;2022-12-29T06:10:25;9.70;96.80
61392;DHT22;47261;52.892;5.738;2022-12-29T06:12:51;9.70;97.00
61392;DHT22;47261;52.892;5.738;2022-12-29T06:15:16;9.70;97.10
61392;DHT22;47261;52.892;5.738;2022-12-29T06:17:42;9.60;97.00
61392;DHT22;47261;52.892;5.738;2022-12-29T06:20:09;9.60;97.10
61392;DHT22;47261;52.892;5.738;2022-12-29T06:22:35;9.60;97.10
61392;DHT22;47261;52.892;5.738;2022-12-29T06:25:01;9.60;97.00
61392;DHT22;47261;52.892;5.738;2022-12-29T06:27:27;9.50;97.00
61392;DHT22;47261;52.892;5.738;2022-12-29T06:29:53;9.50;97.00
61392;DHT22;47261;52.892;5.738;2022-12-29T06:32:19;9.40;97.10
61392;DHT22;47261;52.892;5.738;2022-12-29T06:34:44;9.40;97.40
61392;DHT22;47261;52.892;5.738;2022-12-29T06:37:10;9.40;97.60
61392;DHT22;47261;52.892;5.738;2022-12-29T06:39:36;9.40;97.80
61392;DHT22;47261;52.892;5.738;2022-12-29T06:42:02;9.50;98.00
61392;DHT22;47261;52.892;5.738;2022-12-29T06:44:28;9.50;97.90
61392;DHT22;47261;52.892;5.738;2022-12-29T06:46:53;9.50;97.90
61392;DHT22;47261;52.892;5.738;2022-12-29T06:49:19;9.50;97.80
61392;DHT22;47261;52.892;5.738;2022-12-29T06:51:45;9.50;97.60
61392;DHT22;47261;52.892;5.738;2022-12-29T06:54:10;9.50;97.50
61392;DHT22;47261;52.892;5.738;2022-12-29T06:56:36;9.50;97.60
61392;DHT22;47261;52.892;5.738;2022-12-29T06:59:02;9.50;97.80
61392;DHT22;47261;52.892;5.738;2022-12-29T07:01:27;9.50;97.50
61392;DHT22;47261;52.892;5.738;2022-12-29T07:03:53;9.50;97.60
61392;DHT22;47261;52.892;5.738;2022-12-29T07:06:19;9.50;97.80
61392;DHT22;47261;52.892;5.738;2022-12-29T07:08:44;9.50;98.00
61392;DHT22;47261;52.892;5.738;2022-12-29T07:11:10;9.50;98.20
61392;DHT22;47261;52.892;5.738;2022-12-29T07:13:36;9.50;98.40
61392;DHT22;47261;52.892;5.738;2022-12-29T07:16:06;9.60;98.50
61392;DHT22;47261;52.892;5.738;2022-12-29T07:18:32;9.60;98.50
61392;DHT22;47261;52.892;5.738;2022-12-29T07:20:57;9.70;98.50
61392;DHT22;47261;52.892;5.738;2022-12-29T07:23:23;9.70;98.50
61392;DHT22;47261;52.892;5.738;2022-12-29T07:25:49;9.80;98.40
61392;DHT22;47261;52.892;5.738;2022-12-29T07:28:14;9.80;98.20
61392;DHT22;47261;52.892;5.738;2022-12-29T07:30:40;9.80;97.90
61392;DHT22;47261;52.892;5.738;2022-12-29T07:33:06;9.90;97.70
61392;DHT22;47261;52.892;5.738;2022-12-29T07:35:33;9.90;97.50
61392;DHT22;47261;52.892;5.738;2022-12-29T07:37:58;9.90;97.40
61392;DHT22;47261;52.892;5.738;2022-12-29T07:40:25;9.90;97.20
61392;DHT22;47261;52.892;5.738;2022-12-29T07:42:50;9.90;97.00
61392;DHT22;47261;52.892;5.738;2022-12-29T07:45:16;9.90;96.90
61392;DHT22;47261;52.892;5.738;2022-12-29T07:47:41;9.90;96.80
61392;DHT22;47261;52.892;5.738;2022-12-29T07:50:07;9.80;96.50
61392;DHT22;47261;52.892;5.738;2022-12-29T07:52:33;9.80;96.40
61392;DHT22;47261;52.892;5.738;2022-12-29T07:54:58;9.80;96.40
61392;DHT22;47261;52.892;5.738;2022-12-29T07:57:24;9.80;96.40
61392;DHT22;47261;52.892;5.738;2022-12-29T07:59:50;9.80;96.50
61392;DHT22;47261;52.892;5.738;2022-12-29T08:02:15;9.80;96.50
61392;DHT22;47261;52.892;5.738;2022-12-29T08:04:41;9.80;96.60
61392;DHT22;47261;52.892;5.738;2022-12-29T08:07:06;9.80;96.60
61392;DHT22;47261;52.892;5.738;2022-12-29T08:09:32;9.80;96.70
61392;DHT22;47261;52.892;5.738;2022-12-29T08:11:57;9.90;96.70
61392;DHT22;47261;52.892;5.738;2022-12-29T08:14:23;9.90;96.70
61392;DHT22;47261;52.892;5.738;2022-12-29T08:16:49;9.90;96.70
61392;DHT22;47261;52.892;5.738;2022-12-29T08:19:14;10.00;96.60
61392;DHT22;47261;52.892;5.738;2022-12-29T08:21:40;10.00;96.50
61392;DHT22;47261;52.892;5.738;2022-12-29T08:24:07;10.00;96.50
61392;DHT22;47261;52.892;5.738;2022-12-29T08:26:33;10.00;96.40
61392;DHT22;47261;52.892;5.738;2022-12-29T08:28:59;10.00;96.50
61392;DHT22;47261;52.892;5.738;2022-12-29T08:31:24;10.00;96.40
61392;DHT22;47261;52.892;5.738;2022-12-29T08:33:50;10.10;96.60
61392;DHT22;47261;52.892;5.738;2022-12-29T08:36:16;10.10;96.20
61392;DHT22;47261;52.892;5.738;2022-12-29T08:38:42;10.10;96.10
61392;DHT22;47261;52.892;5.738;2022-12-29T08:41:08;10.10;96.00
61392;DHT22;47261;52.892;5.738;2022-12-29T08:43:33;10.10;96.00
61392;DHT22;47261;52.892;5.738;2022-12-29T08:45:59;10.10;96.10
61392;DHT22;47261;52.892;5.738;2022-12-29T08:48:26;10.00;96.50
61392;DHT22;47261;52.892;5.738;2022-12-29T08:50:51;10.00;96.90
61392;DHT22;47261;52.892;5.738;2022-12-29T08:53:18;9.90;97.50
61392;DHT22;47261;52.892;5.738;2022-12-29T08:55:47;9.80;97.80
61392;DHT22;47261;52.892;5.738;2022-12-29T08:58:13;9.80;97.90
61392;DHT22;47261;52.892;5.738;2022-12-29T09:00:41;9.70;97.90
61392;DHT22;47261;52.892;5.738;2022-12-29T09:03:06;9.70;97.70
61392;DHT22;47261;52.892;5.738;2022-12-29T09:05:32;9.80;97.50
61392;DHT22;47261;52.892;5.738;2022-12-29T09:07:58;9.80;97.50
61392;DHT22;47261;52.892;5.738;2022-12-29T09:10:23;9.80;97.70
61392;DHT22;47261;52.892;5.738;2022-12-29T09:12:49;9.80;97.70
61392;DHT22;47261;52.892;5.738;2022-12-29T09:15:15;9.80;97.80
61392;DHT22;47261;52.892;5.738;2022-12-29T09:17:41;9.90;97.90
61392;DHT22;47261;52.892;5.738;2022-12-29T09:20:16;9.80;98.60
61392;DHT22;47261;52.892;5.738;2022-12-29T09:22:42;9.80;99.10
61392;DHT22;47261;52.892;5.738;2022-12-29T09:25:08;9.70;99.30
61392;DHT22;47261;52.892;5.738;2022-12-29T09:27:34;9.70;99.50
61392;DHT22;47261;52.892;5.738;2022-12-29T09:30:00;9.70;99.50
61392;DHT22;47261;52.892;5.738;2022-12-29T09:32:26;9.60;99.70
61392;DHT22;47261;52.892;5.738;2022-12-29T09:34:52;9.60;99.90
61392;DHT22;47261;52.892;5.738;2022-12-29T09:37:17;9.50;99.90
61392;DHT22;47261;52.892;5.738;2022-12-29T09:39:43;9.50;99.90
61392;DHT22;47261;52.892;5.738;2022-12-29T09:45:33;9.50;99.90
61392;DHT22;47261;52.892;5.738;2022-12-29T09:48:03;9.50;99.90
61392;DHT22;47261;52.892;5.738;2022-12-29T09:50:33;9.50;99.90
61392;DHT22;47261;52.892;5.738;2022-12-29T09:55:39;9.40;99.90
61392;DHT22;47261;52.892;5.738;2022-12-29T10:01:03;9.30;99.90
61392;DHT22;47261;52.892;5.738;2022-12-29T10:03:45;9.20;99.90
61392;DHT22;47261;52.892;5.738;2022-12-29T10:14:37;9.00;99.90
61392;DHT22;47261;52.892;5.738;2022-12-29T10:20:02;8.90;99.90
61392;DHT22;47261;52.892;5.738;2022-12-29T10:25:38;8.80;99.90
61392;DHT22;47261;52.892;5.738;2022-12-29T10:28:10;8.80;99.90
61392;DHT22;47261;52.892;5.738;2022-12-29T10:30:41;8.70;99.90
61392;DHT22;47261;52.892;5.738;2022-12-29T10:33:13;8.70;99.90
61392;DHT22;47261;52.892;5.738;2022-12-29T10:35:41;8.70;99.90
61392;DHT22;47261;52.892;5.738;2022-12-29T10:41:02;8.70;99.90
61392;DHT22;47261;52.892;5.738;2022-12-29T10:43:37;8.70;99.90
61392;DHT22;47261;52.892;5.738;2022-12-29T10:46:10;8.70;99.90
61392;DHT22;47261;52.892;5.738;2022-12-29T10:48:36;8.70;99.90
61392;DHT22;47261;52.892;5.738;2022-12-29T10:51:05;8.70;99.90
61392;DHT22;47261;52.892;5.738;2022-12-29T10:53:39;8.80;99.90
61392;DHT22;47261;52.892;5.738;2022-12-29T10:56:19;8.90;99.90
61392;DHT22;47261;52.892;5.738;2022-12-29T10:58:48;9.00;99.90
61392;DHT22;47261;52.892;5.738;2022-12-29T11:01:16;9.20;99.90
61392;DHT22;47261;52.892;5.738;2022-12-29T11:04:02;9.30;99.90
61392;DHT22;47261;52.892;5.738;2022-12-29T11:06:29;9.50;99.90
61392;DHT22;47261;52.892;5.738;2022-12-29T11:09:02;9.50;99.90
61392;DHT22;47261;52.892;5.738;2022-12-29T11:11:34;9.60;99.90
61392;DHT22;47261;52.892;5.738;2022-12-29T11:14:14;9.70;99.90
61392;DHT22;47261;52.892;5.738;2022-12-29T11:16:41;9.70;99.90
61392;DHT22;47261;52.892;5.738;2022-12-29T11:19:23;9.80;99.90
61392;DHT22;47261;52.892;5.738;2022-12-29T11:21:49;9.80;99.90
61392;DHT22;47261;52.892;5.738;2022-12-29T11:24:26;9.80;99.90
61392;DHT22;47261;52.892;5.738;2022-12-29T11:27:10;9.80;99.80
61392;DHT22;47261;52.892;5.738;2022-12-29T11:29:41;9.90;99.70
61392;DHT22;47261;52.892;5.738;2022-12-29T11:32:24;10.00;99.50
61392;DHT22;47261;52.892;5.738;2022-12-29T11:34:50;10.00;99.10
61392;DHT22;47261;52.892;5.738;2022-12-29T11:42:17;10.20;98.30
61392;DHT22;47261;52.892;5.738;2022-12-29T11:44:48;10.20;98.10
61392;DHT22;47261;52.892;5.738;2022-12-29T11:47:28;10.20;97.60
61392;DHT22;47261;52.892;5.738;2022-12-29T11:49:57;10.10;97.00
61392;DHT22;47261;52.892;5.738;2022-12-29T11:52:26;9.90;96.90
61392;DHT22;47261;52.892;5.738;2022-12-29T11:54:54;9.80;97.00
61392;DHT22;47261;52.892;5.738;2022-12-29T11:57:22;9.60;97.20
61392;DHT22;47261;52.892;5.738;2022-12-29T11:59:52;9.50;97.50
61392;DHT22;47261;52.892;5.738;2022-12-29T12:05:00;9.50;98.00
61392;DHT22;47261;52.892;5.738;2022-12-29T12:07:41;9.50;98.30
61392;DHT22;47261;52.892;5.738;2022-12-29T12:10:32;9.50;98.00
61392;DHT22;47261;52.892;5.738;2022-12-29T12:15:39;9.50;97.90
61392;DHT22;47261;52.892;5.738;2022-12-29T12:18:08;9.50;98.00
61392;DHT22;47261;52.892;5.738;2022-12-29T12:20:50;9.60;97.90
61392;DHT22;47261;52.892;5.738;2022-12-29T12:23:28;9.60;97.90
61392;DHT22;47261;52.892;5.738;2022-12-29T12:26:12;9.60;97.90
61392;DHT22;47261;52.892;5.738;2022-12-29T12:31:12;9.70;97.80
61392;DHT22;47261;52.892;5.738;2022-12-29T12:33:48;9.70;97.30
61392;DHT22;47261;52.892;5.738;2022-12-29T12:36:47;9.70;97.30
61392;DHT22;47261;52.892;5.738;2022-12-29T12:39:47;9.70;97.10
61392;DHT22;47261;52.892;5.738;2022-12-29T12:48:44;9.50;96.90
61392;DHT22;47261;52.892;5.738;2022-12-29T12:56:44;9.40;97.40
61392;DHT22;47261;52.892;5.738;2022-12-29T13:02:31;9.30;97.40
61392;DHT22;47261;52.892;5.738;2022-12-29T13:05:20;9.30;97.40
61392;DHT22;47261;52.892;5.738;2022-12-29T13:13:00;9.20;97.60
61392;DHT22;47261;52.892;5.738;2022-12-29T13:16:09;9.20;97.80
61392;DHT22;47261;52.892;5.738;2022-12-29T13:26:50;9.40;97.50
61392;DHT22;47261;52.892;5.738;2022-12-29T13:38:04;9.50;97.40
61392;DHT22;47261;52.892;5.738;2022-12-29T13:40:34;9.40;97.40
61392;DHT22;47261;52.892;5.738;2022-12-29T13:43:04;9.40;97.40
61392;DHT22;47261;52.892;5.738;2022-12-29T13:45:31;9.40;97.40
61392;DHT22;47261;52.892;5.738;2022-12-29T13:48:06;9.40;97.40
61392;DHT22;47261;52.892;5.738;2022-12-29T13:50:36;9.40;97.50
61392;DHT22;47261;52.892;5.738;2022-12-29T13:53:15;9.30;97.50
61392;DHT22;47261;52.892;5.738;2022-12-29T13:56:06;9.30;97.50
61392;DHT22;47261;52.892;5.738;2022-12-29T14:04:13;9.30;97.60
61392;DHT22;47261;52.892;5.738;2022-12-29T14:06:40;9.20;97.60
61392;DHT22;47261;52.892;5.738;2022-12-29T14:12:36;9.20;97.70
61392;DHT22;47261;52.892;5.738;2022-12-29T14:15:05;9.20;97.70
61392;DHT22;47261;52.892;5.738;2022-12-29T14:17:33;9.10;97.60
61392;DHT22;47261;52.892;5.738;2022-12-29T14:19:58;9.10;97.70
61392;DHT22;47261;52.892;5.738;2022-12-29T14:22:28;9.20;97.70
61392;DHT22;47261;52.892;5.738;2022-12-29T14:24:54;9.20;97.70
61392;DHT22;47261;52.892;5.738;2022-12-29T14:29:47;9.20;97.60
61392;DHT22;47261;52.892;5.738;2022-12-29T14:34:52;9.20;97.60
61392;DHT22;47261;52.892;5.738;2022-12-29T14:37:38;9.20;97.50
61392;DHT22;47261;52.892;5.738;2022-12-29T14:40:14;9.20;97.40
61392;DHT22;47261;52.892;5.738;2022-12-29T14:42:41;9.20;97.40
61392;DHT22;47261;52.892;5.738;2022-12-29T14:45:30;9.20;97.30
61392;DHT22;47261;52.892;5.738;2022-12-29T14:47:58;9.20;97.30
61392;DHT22;47261;52.892;5.738;2022-12-29T14:50:40;9.10;97.30
61392;DHT22;47261;52.892;5.738;2022-12-29T14:53:10;9.10;97.30
61392;DHT22;47261;52.892;5.738;2022-12-29T14:55:57;9.10;97.30
61392;DHT22;47261;52.892;5.738;2022-12-29T15:00:48;9.10;97.40
61392;DHT22;47261;52.892;5.738;2022-12-29T15:05:53;9.10;97.40
61392;DHT22;47261;52.892;5.738;2022-12-29T15:08:22;9.10;97.50
61392;DHT22;47261;52.892;5.738;2022-12-29T15:11:03;9.10;97.50
61392;DHT22;47261;52.892;5.738;2022-12-29T15:13:36;9.10;97.50
61392;DHT22;47261;52.892;5.738;2022-12-29T15:16:02;9.10;97.50
61392;DHT22;47261;52.892;5.738;2022-12-29T15:18:31;9.10;97.40
61392;DHT22;47261;52.892;5.738;2022-12-29T15:21:06;9.10;97.40
61392;DHT22;47261;52.892;5.738;2022-12-29T15:23:34;9.10;97.50
61392;DHT22;47261;52.892;5.738;2022-12-29T15:26:05;9.10;97.50
61392;DHT22;47261;52.892;5.738;2022-12-29T15:28:43;9.00;97.50
61392;DHT22;47261;52.892;5.738;2022-12-29T15:33:41;9.10;97.60
61392;DHT22;47261;52.892;5.738;2022-12-29T15:36:23;9.10;97.60
61392;DHT22;47261;52.892;5.738;2022-12-29T15:38:49;9.20;97.60
61392;DHT22;47261;52.892;5.738;2022-12-29T15:41:26;9.20;97.80
61392;DHT22;47261;52.892;5.738;2022-12-29T15:44:15;9.30;97.60
61392;DHT22;47261;52.892;5.738;2022-12-29T15:46:42;9.30;97.60
61392;DHT22;47261;52.892;5.738;2022-12-29T15:49:11;9.40;97.60
61392;DHT22;47261;52.892;5.738;2022-12-29T15:51:39;9.40;97.60
61392;DHT22;47261;52.892;5.738;2022-12-29T15:54:06;9.50;97.50
61392;DHT22;47261;52.892;5.738;2022-12-29T15:56:37;9.40;97.40
61392;DHT22;47261;52.892;5.738;2022-12-29T15:59:03;9.40;97.20
61392;DHT22;47261;52.892;5.738;2022-12-29T16:01:32;9.30;97.20
61392;DHT22;47261;52.892;5.738;2022-12-29T16:04:00;9.20;97.30
61392;DHT22;47261;52.892;5.738;2022-12-29T16:09:04;9.00;97.60
61392;DHT22;47261;52.892;5.738;2022-12-29T16:11:34;9.00;98.10
61392;DHT22;47261;52.892;5.738;2022-12-29T16:14:01;8.90;98.10
61392;DHT22;47261;52.892;5.738;2022-12-29T16:16:31;8.90;98.10
61392;DHT22;47261;52.892;5.738;2022-12-29T16:18:58;8.80;98.10
61392;DHT22;47261;52.892;5.738;2022-12-29T16:21:32;8.80;98.20
61392;DHT22;47261;52.892;5.738;2022-12-29T16:24:04;8.70;98.30
61392;DHT22;47261;52.892;5.738;2022-12-29T16:26:30;8.70;98.30
61392;DHT22;47261;52.892;5.738;2022-12-29T16:28:59;8.60;98.30
61392;DHT22;47261;52.892;5.738;2022-12-29T16:31:36;8.60;98.50
61392;DHT22;47261;52.892;5.738;2022-12-29T16:34:19;8.60;98.80
61392;DHT22;47261;52.892;5.738;2022-12-29T16:36:58;8.50;99.00
61392;DHT22;47261;52.892;5.738;2022-12-29T16:41:53;8.50;99.20
61392;DHT22;47261;52.892;5.738;2022-12-29T16:44:24;8.50;99.30
61392;DHT22;47261;52.892;5.738;2022-12-29T16:47:11;8.50;99.40
61392;DHT22;47261;52.892;5.738;2022-12-29T16:49:45;8.50;99.40
61392;DHT22;47261;52.892;5.738;2022-12-29T16:52:25;8.50;99.40
61392;DHT22;47261;52.892;5.738;2022-12-29T16:54:59;8.50;99.40
61392;DHT22;47261;52.892;5.738;2022-12-29T16:57:32;8.50;99.50
61392;DHT22;47261;52.892;5.738;2022-12-29T17:00:06;8.50;99.60
61392;DHT22;47261;52.892;5.738;2022-12-29T17:02:34;8.50;99.60
61392;DHT22;47261;52.892;5.738;2022-12-29T17:05:17;8.50;99.60
61392;DHT22;47261;52.892;5.738;2022-12-29T17:07:44;8.50;99.60
61392;DHT22;47261;52.892;5.738;2022-12-29T17:10:10;8.50;99.50
61392;DHT22;47261;52.892;5.738;2022-12-29T17:12:37;8.50;99.40
61392;DHT22;47261;52.892;5.738;2022-12-29T17:15:06;8.50;99.40
61392;DHT22;47261;52.892;5.738;2022-12-29T17:17:49;8.50;99.50
61392;DHT22;47261;52.892;5.738;2022-12-29T17:20:20;8.50;99.50
61392;DHT22;47261;52.892;5.738;2022-12-29T17:22:47;8.50;99.40
61392;DHT22;47261;52.892;5.738;2022-12-29T17:25:18;8.50;99.30
61392;DHT22;47261;52.892;5.738;2022-12-29T17:27:47;8.50;99.20
61392;DHT22;47261;52.892;5.738;2022-12-29T17:30:17;8.50;99.10
61392;DHT22;47261;52.892;5.738;2022-12-29T17:32:51;8.50;99.10
61392;DHT22;47261;52.892;5.738;2022-12-29T17:35:19;8.50;99.00
61392;DHT22;47261;52.892;5.738;2022-12-29T17:37:45;8.50;99.00
61392;DHT22;47261;52.892;5.738;2022-12-29T17:40:19;8.50;98.90
61392;DHT22;47261;52.892;5.738;2022-12-29T17:42:48;8.50;98.90
61392;DHT22;47261;52.892;5.738;2022-12-29T17:45:27;8.50;98.90
61392;DHT22;47261;52.892;5.738;2022-12-29T17:47:54;8.50;98.90
61392;DHT22;47261;52.892;5.738;2022-12-29T17:50:22;8.50;98.80
61392;DHT22;47261;52.892;5.738;2022-12-29T17:52:52;8.40;98.80
61392;DHT22;47261;52.892;5.738;2022-12-29T17:55:19;8.40;98.80
61392;DHT22;47261;52.892;5.738;2022-12-29T17:57:45;8.40;98.90
61392;DHT22;47261;52.892;5.738;2022-12-29T18:00:26;8.40;98.90
61392;DHT22;47261;52.892;5.738;2022-12-29T18:02:52;8.30;98.90
61392;DHT22;47261;52.892;5.738;2022-12-29T18:07:48;8.30;99.10
61392;DHT22;47261;52.892;5.738;2022-12-29T18:10:14;8.30;99.30
61392;DHT22;47261;52.892;5.738;2022-12-29T18:12:42;8.30;99.30
61392;DHT22;47261;52.892;5.738;2022-12-29T18:15:20;8.30;99.30